createdAt,value
2018-09-29T00:02:12.868Z,2.20
2018-09-29T00:04:41.162Z,2.60
2018-09-29T00:07:09.520Z,2.47
2018-09-29T00:09:37.816Z,2.33
2018-09-29T00:12:06.119Z,2.10
2018-09-29T00:14:34.395Z,2.43
2018-09-29T00:17:02.685Z,2.40
2018-09-29T00:19:31.032Z,2.40
2018-09-29T00:21:59.320Z,3.20
2018-09-29T00:24:27.640Z,2.27
2018-09-29T00:26:55.948Z,2.23
2018-09-29T00:29:24.242Z,2.47
2018-09-29T00:31:52.575Z,2.17
2018-09-29T00:34:20.923Z,2.43
2018-09-29T00:36:49.222Z,2.10
2018-09-29T00:39:17.498Z,2.50
2018-09-29T00:41:45.811Z,2.60
2018-09-29T00:44:14.105Z,2.60
2018-09-29T00:46:42.409Z,2.10
2018-09-29T00:49:10.707Z,2.20
2018-09-29T00:51:38.980Z,2.50
2018-09-29T00:54:07.384Z,2.67
2018-09-29T00:56:35.691Z,2.70
2018-09-29T00:59:04.005Z,2.70
2018-09-29T01:01:32.300Z,2.40
2018-09-29T01:04:00.584Z,2.47
2018-09-29T01:06:28.892Z,3.03
2018-09-29T01:08:57.237Z,2.50
2018-09-29T01:11:25.539Z,2.40
2018-09-29T01:13:53.841Z,2.53
2018-09-29T01:16:22.105Z,2.60
2018-09-29T01:18:50.395Z,2.63
2018-09-29T01:21:18.656Z,2.57
2018-09-29T01:23:46.960Z,2.57
2018-09-29T01:26:15.245Z,2.33
2018-09-29T01:28:43.543Z,2.53
2018-09-29T01:31:11.823Z,2.70
2018-09-29T01:33:40.328Z,3.17
2018-09-29T01:36:08.636Z,2.70
2018-09-29T01:38:37.006Z,2.93
2018-09-29T01:41:05.279Z,2.47
2018-09-29T01:43:33.559Z,2.63
2018-09-29T01:46:01.837Z,2.43
2018-09-29T01:48:30.129Z,2.60
2018-09-29T01:50:58.420Z,2.87
2018-09-29T01:53:26.680Z,2.57
2018-09-29T01:55:55.023Z,3.10
2018-09-29T01:58:23.381Z,2.97
2018-09-29T02:00:51.657Z,2.63
2018-09-29T02:03:19.933Z,2.60
2018-09-29T02:05:48.223Z,2.53
2018-09-29T02:08:16.488Z,2.20
2018-09-29T02:10:44.760Z,2.43
2018-09-29T02:13:13.049Z,3.00
2018-09-29T02:15:41.384Z,2.90
2018-09-29T02:18:09.651Z,3.10
2018-09-29T02:20:37.974Z,3.00
2018-09-29T02:23:06.293Z,2.80
2018-09-29T02:25:34.595Z,3.93
2018-09-29T02:28:02.868Z,3.53
2018-09-29T02:30:31.184Z,3.10
2018-09-29T02:32:59.455Z,3.20
2018-09-29T02:35:27.756Z,2.80
2018-09-29T02:37:56.037Z,2.50
2018-09-29T02:40:24.316Z,3.40
2018-09-29T02:42:52.605Z,2.80
2018-09-29T02:45:20.928Z,2.23
2018-09-29T02:47:49.333Z,2.87
2018-09-29T02:50:17.613Z,3.07
2018-09-29T02:52:45.881Z,2.73
2018-09-29T02:55:14.167Z,3.00
2018-09-29T02:57:42.445Z,3.37
2018-09-29T03:00:10.793Z,3.47
2018-09-29T03:02:39.067Z,3.13
2018-09-29T03:05:07.342Z,3.40
2018-09-29T03:07:35.616Z,2.63
2018-09-29T03:10:03.926Z,3.30
2018-09-29T03:12:32.285Z,2.80
2018-09-29T03:15:12.573Z,2.60
2018-09-29T03:17:40.916Z,2.77
2018-09-29T03:20:09.269Z,2.97
2018-09-29T03:22:37.535Z,3.20
2018-09-29T03:25:05.847Z,2.33
2018-09-29T03:27:34.160Z,2.87
2018-09-29T03:30:02.425Z,2.77
2018-09-29T03:32:30.735Z,2.60
2018-09-29T03:34:59.076Z,3.00
2018-09-29T03:37:27.329Z,3.20
2018-09-29T03:39:55.657Z,3.17
2018-09-29T03:42:23.924Z,3.17
2018-09-29T03:44:52.190Z,2.80
2018-09-29T03:47:20.488Z,2.47
2018-09-29T03:49:48.792Z,2.97
2018-09-29T03:52:17.043Z,3.03
2018-09-29T03:54:45.371Z,2.87
2018-09-29T03:57:13.646Z,2.97
2018-09-29T03:59:41.955Z,3.43
2018-09-29T04:02:10.353Z,2.83
2018-09-29T04:04:38.774Z,3.10
2018-09-29T04:07:07.114Z,2.63
2018-09-29T04:09:35.592Z,2.87
2018-09-29T04:12:03.967Z,3.10
2018-09-29T04:14:32.265Z,2.63
2018-09-29T04:17:00.564Z,3.03
2018-09-29T04:19:28.956Z,2.87
2018-09-29T04:21:57.250Z,3.00
2018-09-29T04:24:25.629Z,2.60
2018-09-29T04:26:53.949Z,2.90
2018-09-29T04:29:22.302Z,2.60
2018-09-29T04:31:50.633Z,2.97
2018-09-29T04:34:18.932Z,2.73
2018-09-29T04:36:47.414Z,3.00
2018-09-29T04:39:15.802Z,3.20
2018-09-29T04:41:44.155Z,3.80
2018-09-29T04:44:12.907Z,2.80
2018-09-29T04:46:41.959Z,4.20
2018-09-29T04:49:10.319Z,4.00
2018-09-29T04:51:38.918Z,4.07
2018-09-29T04:54:07.358Z,3.13
2018-09-29T04:56:35.713Z,3.33
2018-09-29T04:59:04.360Z,2.97
2018-09-29T05:01:32.759Z,2.83
2018-09-29T05:04:01.100Z,2.70
2018-09-29T05:06:29.482Z,3.23
2018-09-29T05:08:57.836Z,3.07
2018-09-29T05:11:26.151Z,3.27
2018-09-29T05:13:55.510Z,3.10
2018-09-29T05:16:23.868Z,3.10
2018-09-29T05:18:52.163Z,2.80
2018-09-29T05:21:20.516Z,3.27
2018-09-29T05:23:48.964Z,3.20
2018-09-29T05:26:17.394Z,3.37
2018-09-29T05:28:45.785Z,3.47
2018-09-29T05:31:14.180Z,3.13
2018-09-29T05:33:42.609Z,3.90
2018-09-29T05:36:10.975Z,3.70
2018-09-29T05:38:39.332Z,3.37
2018-09-29T05:41:07.861Z,2.77
2018-09-29T05:43:36.265Z,2.70
2018-09-29T05:46:04.574Z,2.60
2018-09-29T05:48:33.300Z,2.90
2018-09-29T05:51:01.669Z,3.37
2018-09-29T05:53:30.112Z,3.63
2018-09-29T05:55:58.429Z,3.50
2018-09-29T05:58:26.731Z,3.20
2018-09-29T06:00:55.140Z,3.47
2018-09-29T06:03:23.670Z,3.10
2018-09-29T06:05:52.199Z,3.90
2018-09-29T06:08:20.568Z,3.43
2018-09-29T06:10:48.951Z,3.10
2018-09-29T06:13:17.406Z,3.70
2018-09-29T06:15:45.720Z,3.20
2018-09-29T06:18:14.100Z,3.07
2018-09-29T06:20:42.867Z,2.90
2018-09-29T06:23:11.467Z,3.80
2018-09-29T06:25:39.864Z,3.00
2018-09-29T06:28:08.216Z,3.27
2018-09-29T06:30:36.592Z,3.07
2018-09-29T06:33:05.001Z,2.70
2018-09-29T06:35:33.621Z,2.80
2018-09-29T06:38:01.969Z,2.97
2018-09-29T06:40:30.315Z,3.40
2018-09-29T06:42:58.723Z,2.87
2018-09-29T06:45:27.131Z,2.87
2018-09-29T06:47:55.533Z,2.77
2018-09-29T06:50:23.821Z,3.10
2018-09-29T06:52:52.125Z,2.67
2018-09-29T06:55:20.850Z,2.83
2018-09-29T06:57:49.204Z,2.53
2018-09-29T07:00:17.580Z,2.57
2018-09-29T07:02:46.251Z,2.80
2018-09-29T07:05:14.691Z,2.90
2018-09-29T07:07:43.097Z,2.90
2018-09-29T07:10:11.506Z,3.00
2018-09-29T07:12:39.920Z,2.60
2018-09-29T07:15:08.806Z,2.90
2018-09-29T07:17:37.152Z,3.40
2018-09-29T07:20:05.613Z,2.50
2018-09-29T07:22:34.050Z,3.13
2018-09-29T07:25:02.417Z,2.97
2018-09-29T07:27:30.758Z,2.60
2018-09-29T07:29:59.153Z,2.90
2018-09-29T07:32:27.534Z,2.90
2018-09-29T07:34:56.049Z,3.27
2018-09-29T07:37:24.394Z,2.47
2018-09-29T07:39:53.607Z,2.97
2018-09-29T07:42:21.928Z,2.50
2018-09-29T07:44:50.270Z,2.97
2018-09-29T07:47:18.839Z,2.93
2018-09-29T07:49:47.206Z,3.00
2018-09-29T07:52:15.812Z,2.80
2018-09-29T07:54:44.519Z,3.27
2018-09-29T07:57:12.965Z,3.00
2018-09-29T07:59:41.275Z,3.40
2018-09-29T08:02:09.596Z,3.20
2018-09-29T08:04:37.880Z,2.57
2018-09-29T08:07:06.290Z,2.83
2018-09-29T08:09:34.699Z,3.20
2018-09-29T08:12:03.076Z,3.10
2018-09-29T08:14:31.378Z,2.83
2018-09-29T08:16:59.712Z,3.00
2018-09-29T08:19:28.050Z,2.83
2018-09-29T08:21:56.441Z,2.53
2018-09-29T08:24:24.806Z,2.37
2018-09-29T08:26:53.044Z,2.47
2018-09-29T08:29:21.567Z,2.70
2018-09-29T08:31:50.874Z,2.37
2018-09-29T08:34:19.184Z,2.30
2018-09-29T08:36:47.592Z,2.70
2018-09-29T08:39:15.985Z,2.67
2018-09-29T08:41:44.279Z,2.50
2018-09-29T08:44:12.628Z,2.90
2018-09-29T08:46:40.892Z,2.27
2018-09-29T08:49:09.144Z,2.57
2018-09-29T08:51:37.543Z,2.33
2018-09-29T08:54:05.919Z,2.30
2018-09-29T08:56:34.301Z,2.30
2018-09-29T08:59:15.342Z,2.70
2018-09-29T09:01:43.674Z,2.23
2018-09-29T09:04:12.337Z,2.00
2018-09-29T09:06:40.644Z,2.60
2018-09-29T09:09:10.217Z,2.37
2018-09-29T09:11:38.541Z,2.03
2018-09-29T09:14:07.020Z,2.07
2018-09-29T09:16:35.554Z,1.87
2018-09-29T09:19:03.921Z,2.47
2018-09-29T09:21:33.257Z,1.83
2018-09-29T09:24:01.684Z,1.97
2018-09-29T09:26:29.974Z,1.57
2018-09-29T09:28:58.422Z,2.17
2018-09-29T09:31:26.767Z,2.20
2018-09-29T09:33:55.068Z,1.70
2018-09-29T09:36:23.375Z,1.83
2018-09-29T09:38:51.716Z,2.00
2018-09-29T09:41:20.036Z,2.27
2018-09-29T09:43:48.420Z,1.87
2018-09-29T09:46:16.741Z,1.60
2018-09-29T09:48:45.116Z,2.00
2018-09-29T09:51:13.457Z,2.10
2018-09-29T09:53:41.794Z,2.10
2018-09-29T09:56:10.235Z,2.10
2018-09-29T09:58:38.680Z,2.03
2018-09-29T10:01:12.180Z,1.83
2018-09-29T10:03:40.489Z,2.10
2018-09-29T10:06:08.780Z,1.70
2018-09-29T10:08:37.765Z,1.73
2018-09-29T10:11:06.170Z,2.30
2018-09-29T10:13:34.479Z,1.63
2018-09-29T10:16:02.794Z,1.57
2018-09-29T10:18:31.147Z,2.10
2018-09-29T10:20:59.551Z,1.80
2018-09-29T10:23:27.888Z,2.00
2018-09-29T10:25:56.220Z,1.90
2018-09-29T10:28:24.558Z,2.03
2018-09-29T10:30:52.901Z,1.80
2018-09-29T10:33:21.198Z,2.03
2018-09-29T10:35:49.578Z,2.10
2018-09-29T10:38:17.921Z,1.73
2018-09-29T10:40:46.252Z,1.80
2018-09-29T10:43:14.588Z,1.97
2018-09-29T10:45:42.947Z,1.53
2018-09-29T10:48:14.432Z,1.57
2018-09-29T10:50:42.750Z,1.83
2018-09-29T10:53:11.066Z,1.60
2018-09-29T10:55:39.368Z,1.43
2018-09-29T10:58:07.719Z,1.33
2018-09-29T11:00:36.044Z,1.83
2018-09-29T11:03:04.365Z,1.60
2018-09-29T11:05:32.674Z,1.53
2018-09-29T11:08:01.027Z,1.63
2018-09-29T11:10:29.345Z,1.80
2018-09-29T11:12:57.664Z,2.00
2018-09-29T11:15:25.942Z,1.40
2018-09-29T11:17:54.260Z,1.47
2018-09-29T11:20:22.755Z,1.40
2018-09-29T11:22:51.077Z,1.50
2018-09-29T11:25:19.384Z,1.27
2018-09-29T11:27:47.676Z,1.87
2018-09-29T11:30:15.969Z,1.60
2018-09-29T11:32:44.290Z,1.60
2018-09-29T11:35:12.757Z,1.23
2018-09-29T11:37:41.101Z,1.43
2018-09-29T11:40:09.531Z,1.57
2018-09-29T11:42:37.844Z,1.50
2018-09-29T11:45:06.182Z,1.30
2018-09-29T11:47:34.523Z,1.47
2018-09-29T11:50:02.869Z,1.47
2018-09-29T11:52:31.352Z,1.70
2018-09-29T11:54:59.668Z,1.50
2018-09-29T11:57:28.024Z,1.40
2018-09-29T11:59:56.422Z,1.60
2018-09-29T12:02:24.708Z,1.60
2018-09-29T12:04:53.050Z,1.37
2018-09-29T12:07:33.538Z,1.47
2018-09-29T12:10:02.979Z,1.57
2018-09-29T12:12:31.317Z,1.43
2018-09-29T12:14:59.751Z,1.60
2018-09-29T12:17:28.112Z,1.47
2018-09-29T12:19:56.466Z,1.63
2018-09-29T12:22:24.856Z,1.90
2018-09-29T12:24:53.236Z,1.50
2018-09-29T12:27:24.919Z,1.60
2018-09-29T12:29:50.124Z,1.60
2018-09-29T12:32:18.420Z,1.70
2018-09-29T12:34:46.868Z,2.23
2018-09-29T12:37:15.726Z,1.47
2018-09-29T12:39:44.018Z,1.17
2018-09-29T12:42:12.449Z,1.70
2018-09-29T12:44:40.860Z,1.17
2018-09-29T12:47:09.166Z,1.77
2018-09-29T12:49:37.595Z,1.20
2018-09-29T12:52:06.073Z,1.90
2018-09-29T12:54:34.476Z,1.50
2018-09-29T12:57:02.876Z,1.30
2018-09-29T12:59:31.332Z,1.53
2018-09-29T13:01:59.828Z,1.80
2018-09-29T13:04:28.260Z,1.40
2018-09-29T13:06:56.573Z,1.50
2018-09-29T13:09:24.989Z,1.50
2018-09-29T13:11:53.390Z,1.50
2018-09-29T13:14:21.724Z,1.60
2018-09-29T13:16:50.296Z,1.30
2018-09-29T13:19:18.522Z,1.37
2018-09-29T13:21:47.655Z,1.57
2018-09-29T13:24:16.271Z,1.30
2018-09-29T13:26:44.834Z,1.40
2018-09-29T13:29:13.194Z,1.33
2018-09-29T13:31:41.954Z,1.47
2018-09-29T13:34:10.485Z,2.10
2018-09-29T13:36:39.150Z,1.83
2018-09-29T13:39:07.695Z,1.87
2018-09-29T13:41:36.030Z,1.50
2018-09-29T13:44:04.392Z,1.50
2018-09-29T13:46:32.745Z,1.37
2018-09-29T13:49:01.052Z,1.90
2018-09-29T13:51:29.363Z,1.67
2018-09-29T13:53:57.927Z,2.40
2018-09-29T13:56:26.214Z,2.20
2018-09-29T13:58:54.504Z,1.83
2018-09-29T14:01:22.873Z,1.70
2018-09-29T14:03:51.159Z,1.70
2018-09-29T14:06:19.456Z,1.90
2018-09-29T14:08:47.771Z,1.80
2018-09-29T14:11:16.099Z,3.13
2018-09-29T14:13:44.422Z,1.53
2018-09-29T14:16:12.725Z,1.53
2018-09-29T14:18:40.997Z,1.60
2018-09-29T14:21:09.337Z,1.40
2018-09-29T14:23:37.862Z,1.40
2018-09-29T14:26:07.059Z,1.63
2018-09-29T14:28:35.366Z,1.43
2018-09-29T14:31:03.729Z,1.70
2018-09-29T14:33:32.047Z,1.83
2018-09-29T14:36:00.396Z,1.70
2018-09-29T14:38:28.733Z,2.63
2018-09-29T14:40:57.095Z,2.30
2018-09-29T14:43:25.420Z,1.40
2018-09-29T14:45:53.733Z,2.20
2018-09-29T14:48:22.089Z,1.53
2018-09-29T14:50:50.436Z,1.60
2018-09-29T14:53:18.735Z,1.70
2018-09-29T14:55:47.051Z,1.67
2018-09-29T14:58:15.378Z,2.00
2018-09-29T15:00:44.032Z,1.70
2018-09-29T15:03:12.383Z,2.10
2018-09-29T15:05:40.705Z,1.40
2018-09-29T15:08:09.055Z,1.70
2018-09-29T15:10:37.364Z,1.87
2018-09-29T15:13:05.789Z,1.77
2018-09-29T15:15:34.166Z,2.20
2018-09-29T15:18:02.478Z,1.83
2018-09-29T15:20:30.904Z,1.87
2018-09-29T15:22:59.175Z,1.93
2018-09-29T15:25:27.540Z,1.73
2018-09-29T15:28:02.352Z,1.90
2018-09-29T15:30:30.718Z,1.40
2018-09-29T15:32:59.057Z,1.87
2018-09-29T15:35:27.386Z,1.57
2018-09-29T15:37:55.749Z,1.70
2018-09-29T15:40:24.129Z,1.40
2018-09-29T15:42:52.568Z,1.60
2018-09-29T15:45:21.072Z,1.80
2018-09-29T15:47:49.406Z,1.90
2018-09-29T15:50:17.741Z,1.60
2018-09-29T15:52:46.102Z,1.80
2018-09-29T15:55:14.469Z,2.00
2018-09-29T15:57:42.824Z,1.90
2018-09-29T16:00:11.184Z,1.53
2018-09-29T16:02:39.560Z,1.60
2018-09-29T16:05:07.928Z,1.80
2018-09-29T16:07:36.400Z,2.17
2018-09-29T16:10:04.857Z,2.23
2018-09-29T16:12:33.234Z,1.90
2018-09-29T16:15:01.566Z,2.00
2018-09-29T16:17:29.967Z,2.00
2018-09-29T16:19:58.625Z,1.77
2018-09-29T16:22:27.001Z,3.50
2018-09-29T16:24:55.354Z,3.00
2018-09-29T16:27:23.682Z,1.90
2018-09-29T16:29:52.054Z,2.50
2018-09-29T16:32:20.426Z,4.10
2018-09-29T16:34:48.743Z,3.27
2018-09-29T16:37:17.281Z,3.37
2018-09-29T16:39:45.623Z,3.10
2018-09-29T16:42:14.073Z,3.67
2018-09-29T16:44:42.550Z,2.43
2018-09-29T16:47:10.961Z,3.13
2018-09-29T16:49:39.311Z,2.67
2018-09-29T16:52:07.683Z,2.23
2018-09-29T16:54:36.056Z,2.50
2018-09-29T16:57:23.250Z,2.27
2018-09-29T16:59:51.568Z,2.33
2018-09-29T17:02:19.862Z,2.43
2018-09-29T17:04:48.345Z,2.30
2018-09-29T17:07:16.596Z,2.53
2018-09-29T17:09:44.955Z,2.13
2018-09-29T17:12:13.282Z,2.23
2018-09-29T17:14:41.578Z,2.50
2018-09-29T17:17:09.876Z,2.50
2018-09-29T17:19:38.225Z,1.80
2018-09-29T17:22:06.550Z,2.03
2018-09-29T17:24:34.833Z,2.30
2018-09-29T17:27:03.224Z,2.40
2018-09-29T17:29:31.522Z,2.17
2018-09-29T17:31:59.863Z,2.43
2018-09-29T17:34:28.153Z,2.20
2018-09-29T17:36:56.478Z,2.00
2018-09-29T17:39:24.768Z,1.97
2018-09-29T17:41:53.085Z,2.30
2018-09-29T17:44:21.371Z,2.10
2018-09-29T17:46:49.651Z,2.00
2018-09-29T17:49:18.000Z,2.03
2018-09-29T17:51:46.301Z,2.00
2018-09-29T17:54:14.626Z,2.13
2018-09-29T17:56:42.953Z,2.20
2018-09-29T17:59:11.255Z,2.10
2018-09-29T18:01:39.564Z,2.13
2018-09-29T18:04:07.906Z,2.43
2018-09-29T18:06:36.198Z,3.03
2018-09-29T18:09:07.020Z,2.27
2018-09-29T18:11:35.318Z,2.63
2018-09-29T18:14:03.677Z,2.47
2018-09-29T18:16:31.964Z,3.13
2018-09-29T18:19:00.275Z,3.00
2018-09-29T18:21:28.604Z,3.77
2018-09-29T18:23:56.834Z,3.90
2018-09-29T18:26:31.434Z,2.73
2018-09-29T18:28:59.782Z,7.63
2018-09-29T18:31:28.072Z,8.17
2018-09-29T18:33:56.412Z,8.00
2018-09-29T18:36:24.772Z,7.03
2018-09-29T18:38:54.141Z,6.13
2018-09-29T18:41:23.353Z,6.00
2018-09-29T18:43:51.698Z,5.83
2018-09-29T18:46:20.032Z,6.20
2018-09-29T18:48:48.450Z,5.27
2018-09-29T18:51:16.740Z,5.53
2018-09-29T18:53:45.053Z,5.63
2018-09-29T18:56:13.429Z,5.30
2018-09-29T18:58:41.753Z,4.50
2018-09-29T19:01:10.069Z,5.00
2018-09-29T19:03:38.364Z,5.00
2018-09-29T19:06:07.044Z,5.40
2018-09-29T19:08:35.472Z,7.20
2018-09-29T19:11:03.874Z,6.50
2018-09-29T19:13:32.208Z,6.23
2018-09-29T19:16:00.623Z,6.00
2018-09-29T19:18:28.969Z,5.37
2018-09-29T19:20:57.320Z,5.17
2018-09-29T19:23:25.703Z,6.13
2018-09-29T19:25:54.043Z,4.40
2018-09-29T19:28:22.613Z,4.50
2018-09-29T19:30:50.999Z,4.80
2018-09-29T19:33:22.960Z,4.70
2018-09-29T19:35:51.292Z,4.70
2018-09-29T19:38:19.589Z,4.87
2018-09-29T19:40:47.865Z,4.20
2018-09-29T19:43:16.196Z,4.10
2018-09-29T19:45:44.574Z,4.07
2018-09-29T19:48:12.933Z,3.83
2018-09-29T19:50:41.354Z,3.20
2018-09-29T19:53:09.683Z,4.10
2018-09-29T19:55:38.148Z,4.50
2018-09-29T19:58:06.748Z,4.30
2018-09-29T20:00:35.065Z,4.00
2018-09-29T20:03:03.472Z,3.70
2018-09-29T20:05:31.769Z,3.00
2018-09-29T20:08:00.122Z,3.83
2018-09-29T20:10:28.453Z,3.30
2018-09-29T20:12:56.839Z,3.47
2018-09-29T20:15:25.181Z,3.63
2018-09-29T20:17:53.820Z,3.67
2018-09-29T20:20:23.134Z,3.73
2018-09-29T20:22:51.446Z,3.60
2018-09-29T20:25:19.783Z,3.40
2018-09-29T20:27:48.201Z,4.27
2018-09-29T20:30:16.614Z,5.60
2018-09-29T20:32:44.934Z,4.10
2018-09-29T20:35:14.566Z,3.87
2018-09-29T20:37:42.873Z,5.70
2018-09-29T20:40:11.173Z,4.47
2018-09-29T20:42:39.483Z,4.13
2018-09-29T20:45:07.809Z,6.37
2018-09-29T20:47:36.126Z,5.83
2018-09-29T20:50:04.424Z,5.60
2018-09-29T20:52:32.704Z,5.00
2018-09-29T20:55:00.989Z,5.67
2018-09-29T20:57:29.307Z,6.73
2018-09-29T20:59:57.589Z,5.60
2018-09-29T21:02:25.907Z,5.17
2018-09-29T21:04:54.230Z,4.80
2018-09-29T21:07:22.534Z,5.70
2018-09-29T21:09:50.803Z,5.30
2018-09-29T21:12:19.117Z,4.03
2018-09-29T21:14:47.459Z,4.47
2018-09-29T21:17:15.770Z,4.13
2018-09-29T21:19:44.062Z,4.27
2018-09-29T21:22:12.405Z,4.87
2018-09-29T21:24:40.692Z,4.60
2018-09-29T21:27:08.987Z,4.40
2018-09-29T21:29:37.323Z,4.60
2018-09-29T21:32:05.632Z,4.53
2018-09-29T21:34:33.908Z,3.87
2018-09-29T21:37:02.212Z,3.60
2018-09-29T21:39:30.510Z,3.60
2018-09-29T21:41:58.787Z,3.77
2018-09-29T21:44:27.107Z,3.87
2018-09-29T21:46:55.540Z,5.60
2018-09-29T21:49:23.875Z,4.40
2018-09-29T21:51:52.221Z,4.53
2018-09-29T21:54:20.666Z,4.27
2018-09-29T21:56:49.098Z,4.07
2018-09-29T21:59:17.464Z,3.73
2018-09-29T22:01:45.945Z,3.53
2018-09-29T22:04:14.227Z,3.77
2018-09-29T22:06:42.604Z,3.63
2018-09-29T22:09:11.072Z,4.13
2018-09-29T22:11:39.454Z,3.87
2018-09-29T22:14:07.731Z,3.90
2018-09-29T22:16:36.177Z,4.80
2018-09-29T22:19:05.983Z,4.67
2018-09-29T22:21:34.288Z,5.70
2018-09-29T22:24:02.798Z,6.10
2018-09-29T22:26:37.469Z,6.20
2018-09-29T22:29:06.041Z,5.07
2018-09-29T22:31:34.492Z,4.20
2018-09-29T22:34:02.712Z,3.87
2018-09-29T22:36:31.094Z,3.60
2018-09-29T22:38:59.678Z,4.30
2018-09-29T22:41:28.023Z,4.27
2018-09-29T22:43:56.363Z,4.20
2018-09-29T22:46:24.685Z,4.83
2018-09-29T22:48:53.050Z,5.60
2018-09-29T22:51:21.344Z,5.20
2018-09-29T22:53:49.804Z,3.90
2018-09-29T22:56:18.581Z,3.83
2018-09-29T22:58:46.881Z,4.03
2018-09-29T23:01:15.395Z,4.20
2018-09-29T23:03:43.846Z,4.20
2018-09-29T23:06:12.350Z,4.73
2018-09-29T23:08:40.822Z,4.37
2018-09-29T23:11:09.253Z,4.10
2018-09-29T23:13:38.919Z,4.67
2018-09-29T23:16:08.433Z,4.70
2018-09-29T23:18:36.750Z,4.50
2018-09-29T23:21:05.140Z,4.73
2018-09-29T23:23:33.521Z,4.73
2018-09-29T23:26:02.119Z,4.27
2018-09-29T23:28:30.462Z,4.57
2018-09-29T23:30:58.801Z,4.80
2018-09-29T23:33:27.112Z,4.97
2018-09-29T23:35:55.437Z,4.67
2018-09-29T23:38:23.794Z,4.20
2018-09-29T23:40:52.119Z,4.23
2018-09-29T23:43:20.453Z,4.40
2018-09-29T23:45:48.758Z,4.10
2018-09-29T23:48:17.040Z,4.47
2018-09-29T23:50:45.376Z,5.00
2018-09-29T23:53:13.650Z,4.33
2018-09-29T23:55:41.905Z,4.33
2018-09-29T23:58:10.325Z,4.40
